Time;durP1;ratioP1;P1;durP2;ratioP2;P2;SDS_P1;SDS_P2;PMS_P1;PMS_P2;Temp;Humidity;BMP_temperature;BMP_pressure;BME280_temperature;BME280_humidity;BME280_pressure;Samples;Min_cycle;Max_cycle;Signal;HPM_P1;HPM_P2
2021/12/30 00:01:00;;;;;;;36.57;23.33;;;;;;;-2.78;66.14;100426.75;1688198;83;21029;-71
2021/12/30 00:03:27;;;;;;;31.33;21.47;;;;;;;-2.72;66.18;100430.73;1675236;83;21552;-72
2021/12/30 00:05:53;;;;;;;;;;;;;;;-2.69;66.08;100429.67;1685492;83;21590;-72
2021/12/30 00:08:22;;;;;;;34.08;20.97;;;;;;;-2.68;65.94;100427.45;1693809;83;20095;-71
2021/12/30 00:10:50;;;;;;;29.23;18.93;;;;;;;-2.76;66.11;100430.09;1703562;83;20966;-73
2021/12/30 00:13:17;;;;;;;30.83;21.43;;;;;;;-2.80;66.10;100429.92;1703406;82;20994;-71
2021/12/30 00:15:43;;;;;;;;;;;;;;;-2.83;66.17;100419.68;1669122;84;21182;-73
2021/12/30 00:18:11;;;;;;;29.83;20.23;;;;;;;-2.86;66.26;100425.56;1630991;86;20257;-73
2021/12/30 00:20:38;;;;;;;31.30;22.03;;;;;;;-2.89;66.33;100430.52;1636967;86;21069;-71
2021/12/30 00:23:06;;;;;;;29.03;20.60;;;;;;;-2.92;66.49;100433.80;1666033;84;21054;-73
2021/12/30 00:25:39;;;;;;;28.43;19.23;;;;;;;-2.90;66.39;100439.75;1680191;82;21115;-73
2021/12/30 00:28:01;;;;;;;26.50;17.40;;;;;;;-2.91;66.39;100443.31;1694458;83;21097;-75
2021/12/30 00:30:27;;;;;;;32.15;21.10;;;;;;;-2.91;66.46;100445.92;1694691;83;21062;-72
2021/12/30 00:32:54;;;;;;;30.27;19.93;;;;;;;-2.94;66.44;100439.97;1703042;83;21101;-72
2021/12/30 00:35:20;;;;;;;29.77;21.05;;;;;;;-2.96;66.48;100444.89;1696505;83;21010;-73
2021/12/30 00:37:47;;;;;;;33.87;20.73;;;;;;;-2.96;66.57;100450.11;1680733;83;21113;-70
2021/12/30 00:40:14;;;;;;;32.83;21.02;;;;;;;-2.97;66.62;100443.23;1663725;85;21036;-71
2021/12/30 00:42:40;;;;;;;25.60;18.90;;;;;;;-2.96;66.73;100440.53;1695139;83;21174;-73
2021/12/30 00:45:07;;;;;;;28.70;20.68;;;;;;;-2.96;66.68;100443.59;1710454;82;21080;-72
2021/12/30 00:47:34;;;;;;;29.67;20.30;;;;;;;-2.97;66.73;100435.41;1710159;82;21120;-71
2021/12/30 00:50:00;;;;;;;33.00;20.37;;;;;;;-2.98;66.88;100436.33;1696627;82;21024;-72
2021/12/30 00:52:27;;;;;;;29.77;20.10;;;;;;;-2.95;66.83;100435.67;1707662;83;21014;-72
2021/12/30 00:54:53;;;;;;;33.98;20.30;;;;;;;-2.95;66.74;100430.93;1695859;82;21052;-73
2021/12/30 00:57:19;;;;;;;31.17;21.02;;;;;;;-2.94;66.92;100433.89;1689166;82;21028;-74
2021/12/30 00:59:45;;;;;;;33.65;21.52;;;;;;;-2.95;66.84;100433.53;1640588;86;21006;-72
2021/12/30 01:02:12;;;;;;;35.30;21.48;;;;;;;-2.97;66.82;100431.50;1665795;85;21049;-72
2021/12/30 01:04:38;;;;;;;33.05;21.30;;;;;;;-2.98;66.89;100427.20;1691466;83;21044;-71
2021/12/30 01:07:04;;;;;;;32.13;22.05;;;;;;;-2.98;67.08;100424.12;1689762;83;21552;-70
2021/12/30 01:09:32;;;;;;;35.30;22.57;;;;;;;-2.96;67.02;100425.33;1695577;83;21481;-71
2021/12/30 01:11:59;;;;;;;40.55;24.05;;;;;;;-2.99;66.97;100434.20;1690200;82;21536;-73
2021/12/30 01:14:29;;;;;;;30.30;18.73;;;;;;;-2.99;67.12;100432.06;1683301;83;21024;-72
2021/12/30 01:16:58;;;;;;;29.40;20.43;;;;;;;-2.98;67.14;100429.81;1687762;83;21013;-70
2021/12/30 01:19:42;;;;;;;34.87;21.40;;;;;;;-2.95;66.86;100433.06;1680949;83;21045;-71
2021/12/30 01:21:54;;;;;;;37.23;23.07;;;;;;;-2.97;66.78;100434.94;1685775;83;21056;-70
2021/12/30 01:24:22;;;;;;;36.07;21.57;;;;;;;-2.96;66.83;100437.06;1694942;83;21046;-71
2021/12/30 01:26:48;;;;;;;32.90;21.97;;;;;;;-2.97;66.89;100437.55;1697464;83;21602;-72
2021/12/30 01:29:15;;;;;;;31.27;21.17;;;;;;;-2.90;66.63;100430.62;1692495;83;21030;-71
2021/12/30 01:31:42;;;;;;;36.60;23.70;;;;;;;-2.92;66.50;100432.02;1695564;83;22151;-71
2021/12/30 01:34:08;;;;;;;28.70;20.62;;;;;;;-2.91;66.57;100432.40;1695060;83;21056;-71
2021/12/30 01:36:35;;;;;;;;;;;;;;;-2.91;66.57;100430.27;1702849;83;21057;-72
2021/12/30 01:39:03;;;;;;;29.17;18.87;;;;;;;-2.92;66.63;100430.71;1694876;83;20167;-70
2021/12/30 01:41:29;;;;;;;31.48;21.02;;;;;;;-2.97;66.72;100431.02;1694754;83;21671;-71
2021/12/30 01:43:55;;;;;;;36.85;23.65;;;;;;;-3.00;66.75;100431.21;1694343;83;21054;-79
2021/12/30 01:46:21;;;;;;;43.52;25.62;;;;;;;-3.01;66.96;100429.55;1699127;83;21083;-72
2021/12/30 01:48:47;;;;;;;41.63;25.23;;;;;;;-3.02;66.98;100426.56;1707401;83;21060;-75
2021/12/30 01:51:14;;;;;;;34.55;23.73;;;;;;;-3.00;66.91;100427.30;1713791;83;21035;-72
2021/12/30 01:53:42;;;;;;;37.73;25.90;;;;;;;-3.01;67.05;100436.07;1719447;83;21060;-70
2021/12/30 01:56:08;;;;;;;43.02;25.60;;;;;;;-2.97;67.08;100440.63;1686613;83;21707;-79
2021/12/30 01:58:38;;;;;;;44.42;28.05;;;;;;;-2.98;67.09;100434.55;1692191;83;20993;-71
2021/12/30 02:01:04;;;;;;;42.80;26.87;;;;;;;-2.96;67.09;100434.45;1703443;83;21026;-72
2021/12/30 02:03:32;;;;;;;46.07;27.13;;;;;;;-2.94;67.17;100443.02;1694879;83;21009;-71
2021/12/30 02:05:58;;;;;;;34.00;22.20;;;;;;;-2.95;66.90;100442.67;1694277;83;21541;-71
2021/12/30 02:08:25;;;;;;;40.90;23.57;;;;;;;-2.97;66.96;100440.63;1696808;83;21203;-72
2021/12/30 02:10:51;;;;;;;37.78;24.35;;;;;;;-3.00;67.02;100446.86;1687759;83;21502;-70
2021/12/30 02:13:19;;;;;;;41.10;26.52;;;;;;;-3.02;67.22;100442.21;1678115;83;21603;-73
2021/12/30 02:15:48;;;;;;;35.40;22.80;;;;;;;-3.02;67.35;100455.25;1686765;83;21062;-73
2021/12/30 02:18:17;;;;;;;33.37;22.93;;;;;;;-2.98;67.20;100461.94;1686458;83;21121;-74
2021/12/30 02:20:53;;;;;;;37.07;24.13;;;;;;;-2.97;67.20;100462.32;1698990;83;21038;-70
2021/12/30 02:23:27;;;;;;;38.83;26.60;;;;;;;-2.92;67.24;100461.19;1697920;83;21049;-72
2021/12/30 02:25:58;;;;;;;39.33;25.27;;;;;;;-2.94;67.11;100454.31;1695366;83;21588;-73
2021/12/30 02:28:29;;;;;;;45.10;28.47;;;;;;;-2.95;67.12;100453.92;1696285;83;21109;-71
2021/12/30 02:31:00;;;;;;;41.20;26.60;;;;;;;-2.98;67.26;100453.28;1697151;83;21092;-72
2021/12/30 02:33:28;;;;;;;42.67;25.87;;;;;;;-2.98;67.18;100455.41;1698601;83;21607;-72
2021/12/30 02:35:56;;;;;;;49.07;28.80;;;;;;;-2.98;67.19;100460.63;1701024;82;21047;-70
2021/12/30 02:38:24;;;;;;;44.23;27.30;;;;;;;-3.38;67.12;100399.30;1712757;82;21020;-71
2021/12/30 02:40:56;;;;;;;47.80;27.13;;;;;;;-3.04;66.98;100454.52;1704803;82;21004;-70
2021/12/30 02:43:27;;;;;;;37.37;23.20;;;;;;;-3.11;67.28;100451.92;1712252;82;21024;-74
2021/12/30 02:45:55;;;;;;;42.80;26.33;;;;;;;-3.11;67.52;100453.70;1711729;82;21039;-72
2021/12/30 02:48:26;;;;;;;38.63;25.63;;;;;;;-3.14;67.59;100462.09;1712063;83;21024;-76
2021/12/30 02:50:57;;;;;;;35.90;25.30;;;;;;;-3.15;67.87;100463.02;1709987;82;21140;-73
2021/12/30 02:53:24;;;;;;;47.27;29.10;;;;;;;-3.22;67.91;100452.62;1709749;83;21001;-71
2021/12/30 02:55:53;;;;;;;37.30;25.17;;;;;;;-3.26;68.15;100456.81;1699723;82;20992;-71
2021/12/30 02:58:21;;;;;;;44.23;28.50;;;;;;;-3.30;68.26;100463.16;1711618;82;21035;-73
2021/12/30 03:00:49;;;;;;;40.83;26.37;;;;;;;-3.30;68.23;100469.67;1681040;84;21040;-73
2021/12/30 03:03:21;;;;;;;42.63;27.17;;;;;;;-3.29;68.41;100472.19;1699697;82;21077;-73
2021/12/30 03:05:49;;;;;;;41.50;26.63;;;;;;;-3.22;68.32;100472.62;1696850;82;21125;-71
2021/12/30 03:08:16;;;;;;;41.10;25.37;;;;;;;-3.21;68.31;100478.22;1702748;83;21041;-73
2021/12/30 03:10:44;;;;;;;47.87;28.63;;;;;;;-3.16;68.25;100474.87;1707102;82;21021;-71
2021/12/30 03:13:14;;;;;;;48.70;31.33;;;;;;;-3.18;68.27;100480.65;1703649;82;21691;-72
2021/12/30 03:15:42;;;;;;;48.50;31.60;;;;;;;-3.18;68.41;100487.99;1705345;83;21081;-72
2021/12/30 03:18:08;;;;;;;50.80;30.90;;;;;;;-3.22;68.49;100491.73;1698550;82;21078;-71
2021/12/30 03:20:36;;;;;;;46.08;30.97;;;;;;;-3.17;68.60;100494.03;1697483;82;21030;-70
2021/12/30 03:23:04;;;;;;;50.17;32.27;;;;;;;-3.12;68.62;100500.28;1701056;83;21064;-71
2021/12/30 03:25:32;;;;;;;50.60;31.67;;;;;;;-3.09;68.49;100498.77;1690789;82;21056;-70
2021/12/30 03:27:59;;;;;;;49.35;30.35;;;;;;;-3.07;68.52;100504.28;1694936;82;21518;-71
2021/12/30 03:30:25;;;;;;;;;;;;;;;-3.02;68.46;100514.41;1699141;82;21012;-73
2021/12/30 03:33:58;;;;;;;57.53;31.90;;;;;;;-2.97;68.43;100514.96;1783990;77;22244;-70
2021/12/30 03:36:25;;;;;;;51.80;32.30;;;;;;;-2.98;68.38;100515.41;1722754;81;21536;-71
2021/12/30 03:38:53;;;;;;;54.03;32.77;;;;;;;-2.97;68.38;100504.05;1708029;81;21035;-71
2021/12/30 03:41:23;;;;;;;47.67;31.57;;;;;;;-2.96;68.39;100509.66;1660868;85;21057;-71
2021/12/30 03:43:50;;;;;;;53.43;34.17;;;;;;;-3.02;68.61;100513.93;1672596;84;21065;-70
2021/12/30 03:46:16;;;;;;;49.47;32.47;;;;;;;-3.09;68.82;100513.94;1684476;82;21022;-73
2021/12/30 03:48:44;;;;;;;52.00;30.12;;;;;;;-3.19;69.17;100514.16;1688276;84;21063;-73
2021/12/30 03:51:20;;;;;;;55.40;32.33;;;;;;;-3.36;69.57;100504.78;1688511;84;21117;-71
2021/12/30 03:53:45;;;;;;;55.50;33.60;;;;;;;-3.30;69.79;100523.94;1687197;84;21089;-71
2021/12/30 03:56:13;;;;;;;51.50;31.77;;;;;;;-3.28;69.97;100518.64;1672952;84;21073;-71
2021/12/30 03:58:42;;;;;;;54.33;34.27;;;;;;;-3.23;70.01;100518.72;1648587;85;21026;-72
2021/12/30 04:01:11;;;;;;;50.30;30.63;;;;;;;-4.24;69.85;100343.89;1645758;85;20971;-72
2021/12/30 04:03:38;;;;;;;50.03;31.27;;;;;;;-3.16;70.03;100520.50;1638957;85;22279;-73
2021/12/30 04:06:04;;;;;;;;;;;;;;;-3.11;69.84;100531.45;1645895;85;21518;-71
2021/12/30 04:08:30;;;;;;;54.97;31.80;;;;;;;-3.08;69.97;100528.67;1635897;85;20136;-73
2021/12/30 04:10:57;;;;;;;59.67;34.18;;;;;;;-3.06;69.83;100526.80;1641898;85;21031;-77
2021/12/30 04:13:24;;;;;;;54.20;33.08;;;;;;;-3.05;69.76;100525.88;1643551;85;21102;-72
2021/12/30 04:15:52;;;;;;;59.17;32.60;;;;;;;-3.00;69.68;100526.88;1643558;85;21006;-71
2021/12/30 04:18:20;;;;;;;60.43;33.17;;;;;;;-3.00;69.84;100532.92;1642318;85;22181;-73
2021/12/30 04:20:47;;;;;;;62.67;34.87;;;;;;;-3.07;70.09;100538.18;1643819;85;21531;-70
2021/12/30 04:23:14;;;;;;;58.73;32.93;;;;;;;-3.13;70.65;100543.75;1640272;85;21557;-70
2021/12/30 04:25:40;;;;;;;62.37;34.53;;;;;;;-3.22;71.08;100546.48;1693061;83;21037;-71
2021/12/30 04:28:06;;;;;;;66.22;37.30;;;;;;;-3.30;71.41;100543.49;1694436;83;21040;-69
2021/12/30 04:30:36;;;;;;;60.50;32.90;;;;;;;-3.38;71.84;100545.74;1694765;83;21524;-71
2021/12/30 04:33:04;;;;;;;61.97;32.27;;;;;;;-3.52;72.64;100543.51;1695772;83;21632;-72
2021/12/30 04:35:32;;;;;;;63.10;36.43;;;;;;;-3.59;72.90;100544.80;1697221;83;21477;-79
2021/12/30 04:37:58;;;;;;;68.77;37.63;;;;;;;-3.65;72.83;100541.75;1685841;83;21103;-72
2021/12/30 04:40:24;;;;;;;67.80;36.93;;;;;;;-3.56;73.04;100556.80;1681965;83;21037;-71
2021/12/30 04:42:50;;;;;;;63.78;34.92;;;;;;;-3.48;73.11;100560.24;1690824;83;21511;-69
2021/12/30 04:45:16;;;;;;;69.17;40.43;;;;;;;-3.44;72.96;100570.41;1696360;83;21012;-71
2021/12/30 04:47:43;;;;;;;70.47;38.58;;;;;;;-3.44;73.12;100573.02;1709402;83;21136;-70
2021/12/30 04:50:12;;;;;;;72.20;39.80;;;;;;;-3.45;73.35;100576.53;1696150;83;21005;-69
2021/12/30 04:52:40;;;;;;;67.60;37.90;;;;;;;-3.44;73.50;100575.62;1701215;83;21042;-71
2021/12/30 04:55:10;;;;;;;72.70;40.20;;;;;;;-3.37;73.62;100577.38;1694015;83;21041;-71
2021/12/30 04:57:37;;;;;;;65.87;38.27;;;;;;;-3.34;73.61;100580.63;1703216;83;21111;-70
2021/12/30 05:00:09;;;;;;;64.57;36.20;;;;;;;-3.33;73.57;100586.23;1694196;83;21098;-73
2021/12/30 05:02:59;;;;;;;68.77;39.50;;;;;;;-3.33;73.49;100590.14;1691953;83;21569;-71
2021/12/30 05:05:04;;;;;;;69.27;40.03;;;;;;;-3.32;73.62;100588.37;1689894;83;21038;-70
2021/12/30 05:07:30;;;;;;;;;;;;;;;-3.27;73.69;100593.32;1706454;83;21052;-70
2021/12/30 05:09:56;;;;;;;77.70;41.17;;;;;;;-3.17;73.56;100601.77;1692914;83;20157;-70
2021/12/30 05:12:22;;;;;;;77.08;42.93;;;;;;;-3.15;73.59;100599.08;1677809;83;21596;-72
2021/12/30 05:14:48;;;;;;;68.57;40.52;;;;;;;-3.05;73.43;100600.20;1667590;84;21100;-71
2021/12/30 05:17:14;;;;;;;73.80;41.53;;;;;;;-3.02;73.19;100595.25;1671994;84;21120;-71
2021/12/30 05:19:41;;;;;;;70.67;41.83;;;;;;;-2.98;73.08;100588.44;1666160;84;21533;-70
2021/12/30 05:22:07;;;;;;;74.90;44.35;;;;;;;-2.94;73.06;100588.64;1658080;83;21002;-73
2021/12/30 05:24:35;;;;;;;78.00;43.30;;;;;;;-2.89;73.07;100586.20;1603314;87;21579;-73
2021/12/30 05:27:01;;;;;;;73.52;41.68;;;;;;;-2.83;73.05;100586.64;1646920;85;21108;-71
2021/12/30 05:29:27;;;;;;;76.50;43.00;;;;;;;-2.81;72.73;100584.77;1647777;85;21135;-72
2021/12/30 05:31:55;;;;;;;73.83;42.00;;;;;;;-2.79;72.42;100589.91;1647282;85;21072;-80
2021/12/30 05:34:21;;;;;;;79.80;44.33;;;;;;;-2.80;72.70;100594.29;1686780;81;21617;-73
2021/12/30 05:36:47;;;;;;;82.82;47.43;;;;;;;-2.79;72.65;100595.12;1748819;81;20978;-71
2021/12/30 05:39:13;;;;;;;80.15;45.90;;;;;;;-2.80;72.64;100592.16;1754694;81;21470;-74
2021/12/30 05:41:40;;;;;;;71.55;42.08;;;;;;;-2.75;72.70;100592.69;1736613;81;20989;-68
2021/12/30 05:44:07;;;;;;;72.07;41.43;;;;;;;-2.74;72.64;100599.11;1745358;81;21030;-70
2021/12/30 05:46:34;;;;;;;71.30;42.20;;;;;;;-2.76;72.40;100595.77;1709265;82;21019;-69
2021/12/30 05:49:01;;;;;;;71.77;42.83;;;;;;;-2.82;72.70;100594.03;1701965;82;21030;-69
2021/12/30 05:51:27;;;;;;;75.32;43.63;;;;;;;-2.86;72.81;100599.04;1710832;82;21023;-68
2021/12/30 05:53:54;;;;;;;81.10;49.70;;;;;;;-2.87;73.16;100607.34;1713009;82;21152;-70
2021/12/30 05:56:20;;;;;;;81.20;47.80;;;;;;;-2.88;73.32;100611.34;1707410;82;21014;-71
2021/12/30 05:58:46;;;;;;;85.70;48.00;;;;;;;-2.86;73.46;100618.60;1713685;82;21003;-70
2021/12/30 06:01:12;;;;;;;81.75;45.35;;;;;;;-2.83;73.55;100624.95;1707825;83;21510;-70
2021/12/30 06:03:39;;;;;;;76.62;45.70;;;;;;;-2.81;73.48;100620.47;1705541;83;21134;-74
2021/12/30 06:06:05;;;;;;;85.67;46.45;;;;;;;-2.82;73.47;100617.03;1699901;83;21403;-70
2021/12/30 06:08:32;;;;;;;77.95;43.55;;;;;;;-2.82;73.54;100614.42;1696373;83;21591;-71
2021/12/30 06:10:59;;;;;;;79.03;45.50;;;;;;;-2.78;73.57;100622.91;1705344;83;22246;-68
2021/12/30 06:13:25;;;;;;;74.27;44.90;;;;;;;-2.78;73.52;100628.95;1741175;81;21034;-69
2021/12/30 06:15:53;;;;;;;83.10;45.77;;;;;;;-2.75;73.48;100629.21;1735355;81;21097;-68
2021/12/30 06:18:19;;;;;;;83.07;41.75;;;;;;;-2.79;73.64;100635.56;1738369;81;21225;-69
2021/12/30 06:20:46;;;;;;;85.92;46.88;;;;;;;-2.78;73.74;100639.86;1737542;81;21699;-68
2021/12/30 06:23:13;;;;;;;75.03;41.50;;;;;;;-2.80;73.75;100650.86;1737302;81;21069;-68
2021/12/30 06:25:40;;;;;;;84.47;43.75;;;;;;;-2.80;73.88;100661.30;1735639;81;21022;-68
2021/12/30 06:28:06;;;;;;;79.10;46.00;;;;;;;-2.80;73.75;100659.99;1732582;81;21113;-69
2021/12/30 06:30:33;;;;;;;79.40;45.13;;;;;;;-2.80;73.91;100656.08;1731466;82;21066;-69
2021/12/30 06:32:59;;;;;;;77.40;41.70;;;;;;;-2.75;73.91;100657.91;1732037;81;21034;-69
2021/12/30 06:35:31;;;;;;;74.70;45.05;;;;;;;-2.74;73.93;100661.73;1735010;81;21537;-65
2021/12/30 06:37:59;;;;;;;76.10;44.77;;;;;;;-2.72;73.88;100664.27;1696016;83;21042;-63
2021/12/30 06:40:25;;;;;;;78.83;45.77;;;;;;;-2.71;73.88;100665.95;1696595;83;21133;-65
2021/12/30 06:42:52;;;;;;;69.17;42.48;;;;;;;-2.67;74.00;100666.12;1733293;82;21487;-64
2021/12/30 06:45:19;;;;;;;78.55;43.40;;;;;;;-2.62;73.52;100664.52;1711705;81;22166;-64
2021/12/30 06:47:47;;;;;;;64.83;40.70;;;;;;;-2.59;73.16;100667.78;1699866;84;21452;-64
2021/12/30 06:50:16;;;;;;;65.13;41.57;;;;;;;-2.61;73.14;100665.73;1696609;83;21045;-64
2021/12/30 06:52:48;;;;;;;73.97;44.33;;;;;;;-2.56;73.09;100669.38;1704953;84;22202;-64
2021/12/30 06:55:13;;;;;;;80.70;47.53;;;;;;;-2.56;73.00;100663.69;1702889;83;21070;-63
2021/12/30 06:57:40;;;;;;;78.87;46.42;;;;;;;-2.52;72.97;100666.08;1718189;83;21002;-63
2021/12/30 07:00:11;;;;;;;71.47;41.07;;;;;;;-2.49;72.96;100657.59;1713036;82;20930;-63
2021/12/30 07:02:44;;;;;;;83.63;45.70;;;;;;;-2.53;73.00;100649.59;1666724;84;21032;-63
2021/12/30 07:05:12;;;;;;;79.70;47.40;;;;;;;-2.63;73.27;100644.12;1723862;82;21590;-62
2021/12/30 07:07:39;;;;;;;90.23;48.13;;;;;;;-2.72;73.77;100652.99;1722127;82;21031;-64
2021/12/30 07:10:07;;;;;;;86.67;49.23;;;;;;;-2.78;74.16;100658.95;1715318;82;21034;-66
2021/12/30 07:12:33;;;;;;;82.10;48.20;;;;;;;-2.81;74.30;100661.73;1651201;85;21061;-65
2021/12/30 07:14:59;;;;;;;85.60;47.67;;;;;;;-2.91;74.62;100654.59;1705850;82;21152;-66
2021/12/30 07:17:29;;;;;;;88.27;49.85;;;;;;;-2.96;74.75;100651.81;1678582;83;21514;-63
2021/12/30 07:19:53;;;;;;;88.27;49.57;;;;;;;-2.98;74.90;100667.98;1696874;84;21095;-64
2021/12/30 07:22:21;;;;;;;84.17;45.10;;;;;;;-2.96;75.19;100663.55;1698426;82;21002;-67
2021/12/30 07:24:48;;;;;;;77.85;43.73;;;;;;;-2.96;75.27;100660.94;1697108;82;21054;-67
2021/12/30 07:27:14;;;;;;;82.47;46.20;;;;;;;-2.96;75.29;100667.45;1713197;82;21162;-66
2021/12/30 07:29:40;;;;;;;85.75;46.92;;;;;;;-2.96;75.13;100668.76;1698973;82;21066;-66
2021/12/30 07:32:07;;;;;;;84.20;49.25;;;;;;;-3.02;75.45;100665.20;1707375;82;21507;-66
2021/12/30 07:34:33;;;;;;;75.50;45.03;;;;;;;-3.03;75.56;100665.28;1706455;82;21034;-66
2021/12/30 07:36:59;;;;;;;90.45;50.43;;;;;;;-3.09;75.90;100662.58;1695943;82;21079;-67
2021/12/30 07:39:25;;;;;;;81.87;49.40;;;;;;;-3.09;76.06;100664.36;1695922;82;21148;-69
2021/12/30 07:41:51;;;;;;;89.83;50.58;;;;;;;-3.13;76.26;100668.92;1704058;82;21364;-67
2021/12/30 07:44:18;;;;;;;79.73;46.27;;;;;;;-3.14;76.30;100670.70;1693626;82;20986;-66
2021/12/30 07:46:44;;;;;;;86.72;50.88;;;;;;;-3.16;76.49;100666.04;1693387;82;21086;-66
2021/12/30 07:49:10;;;;;;;82.30;46.13;;;;;;;-3.15;76.53;100670.78;1692039;82;21099;-66
2021/12/30 07:51:37;;;;;;;87.27;49.30;;;;;;;-3.16;76.99;100669.95;1695769;82;21038;-66
2021/12/30 07:54:05;;;;;;;85.80;50.73;;;;;;;-3.17;77.21;100670.87;1685089;82;21038;-65
2021/12/30 07:56:31;;;;;;;97.12;51.13;;;;;;;-3.16;77.44;100675.64;1701958;82;20963;-67
2021/12/30 07:58:58;;;;;;;88.35;51.00;;;;;;;-3.12;77.43;100675.83;1689658;82;21124;-68
2021/12/30 08:01:24;;;;;;;;;;;;;;;-3.07;76.87;100679.00;1703587;82;20999;-66
2021/12/30 08:03:50;;;;;;;91.40;49.30;;;;;;;-3.03;76.74;100680.49;1691473;82;20181;-65
2021/12/30 08:06:17;;;;;;;91.85;47.60;;;;;;;-3.02;76.60;100682.15;1705725;82;20999;-67
2021/12/30 08:08:44;;;;;;;87.70;47.93;;;;;;;-3.02;76.25;100689.97;1700678;82;21125;-69
2021/12/30 08:11:10;;;;;;;85.67;49.47;;;;;;;-3.02;76.28;100693.89;1690074;82;21038;-68
2021/12/30 08:13:37;;;;;;;82.13;46.60;;;;;;;-3.01;76.05;100698.66;1706562;82;21472;-68
2021/12/30 08:16:04;;;;;;;75.05;42.17;;;;;;;-3.02;76.12;100699.10;1709002;82;21115;-68
2021/12/30 08:18:31;;;;;;;79.03;42.70;;;;;;;-3.02;76.25;100703.48;1702070;82;21015;-70
2021/12/30 08:20:58;;;;;;;75.37;42.75;;;;;;;-3.00;76.18;100695.94;1707547;82;21093;-68
2021/12/30 08:23:25;;;;;;;76.90;41.57;;;;;;;-3.01;76.21;100692.97;1708569;83;20987;-70
2021/12/30 08:25:51;;;;;;;84.50;46.70;;;;;;;-3.02;76.31;100694.36;1698122;82;21494;-67
2021/12/30 08:28:19;;;;;;;83.10;43.43;;;;;;;-3.02;76.45;100692.58;1698342;84;20999;-68
2021/12/30 08:30:46;;;;;;;81.40;46.77;;;;;;;-3.01;76.70;100691.67;1705725;82;21085;-68
2021/12/30 08:33:12;;;;;;;82.02;43.28;;;;;;;-3.02;76.74;100697.80;1706066;82;21185;-70
2021/12/30 08:35:39;;;;;;;84.28;45.43;;;;;;;-3.00;76.69;100694.63;1692560;83;21509;-74
2021/12/30 08:38:05;;;;;;;85.50;44.00;;;;;;;-3.01;76.83;100689.53;1709330;83;21053;-75
2021/12/30 08:40:31;;;;;;;80.92;42.33;;;;;;;-3.07;77.06;100684.22;1706939;83;21065;-75
2021/12/30 08:42:57;;;;;;;79.10;44.20;;;;;;;-3.09;77.22;100680.84;1714699;83;20979;-74
2021/12/30 08:45:24;;;;;;;84.15;46.35;;;;;;;-3.07;77.35;100678.14;1707469;82;21478;-73
2021/12/30 08:47:50;;;;;;;75.35;39.75;;;;;;;-3.10;77.47;100676.57;1707280;82;21627;-74
2021/12/30 08:50:17;;;;;;;73.60;41.50;;;;;;;-3.12;77.83;100673.22;1704310;82;21058;-72
2021/12/30 08:52:45;;;;;;;79.00;40.30;;;;;;;-3.09;77.89;100683.92;1709455;82;21032;-75
2021/12/30 08:55:14;;;;;;;81.40;43.33;;;;;;;-3.10;78.15;100683.09;1694111;82;21066;-74
2021/12/30 08:57:43;;;;;;;87.73;47.73;;;;;;;-3.06;78.08;100689.80;1667562;84;21062;-73
2021/12/30 09:00:20;;;;;;;74.53;41.60;;;;;;;-3.05;78.11;100687.57;1669575;84;21022;-75
2021/12/30 09:02:47;;;;;;;82.85;43.35;;;;;;;-3.00;78.17;100683.37;1704167;82;20978;-75
2021/12/30 09:05:14;;;;;;;86.80;46.28;;;;;;;-2.96;78.20;100683.11;1710351;82;21052;-73
2021/12/30 09:07:43;;;;;;;78.07;41.63;;;;;;;-2.89;78.02;100684.86;1714330;82;21105;-75
2021/12/30 09:10:12;;;;;;;75.17;40.67;;;;;;;-2.82;77.92;100692.69;1708277;82;21014;-75
2021/12/30 09:12:43;;;;;;;87.60;46.43;;;;;;;-2.79;77.58;100687.73;1702792;81;21061;-73
2021/12/30 09:15:17;;;;;;;80.67;42.00;;;;;;;-2.78;77.53;100688.13;1702741;83;21533;-74
2021/12/30 09:17:46;;;;;;;76.33;38.60;;;;;;;-2.78;77.61;100684.22;1703667;83;21049;-74
2021/12/30 09:20:18;;;;;;;70.80;36.57;;;;;;;-2.76;77.37;100688.87;1701597;83;21018;-74
2021/12/30 09:22:45;;;;;;;72.47;38.53;;;;;;;-2.80;77.45;100684.30;1701897;83;20996;-74
2021/12/30 09:25:12;;;;;;;63.93;34.40;;;;;;;-2.77;77.24;100688.48;1699555;83;21114;-69
2021/12/30 09:27:41;;;;;;;65.07;35.53;;;;;;;-2.74;77.19;100686.53;1691731;83;21053;-70
2021/12/30 09:30:12;;;;;;;76.90;39.53;;;;;;;-2.70;76.98;100678.05;1700956;83;21459;-68
2021/12/30 09:32:40;;;;;;;70.03;37.37;;;;;;;-2.66;76.51;100683.44;1701148;83;21083;-71
2021/12/30 09:35:10;;;;;;;65.00;36.33;;;;;;;-2.66;76.52;100685.22;1709559;82;21594;-69
2021/12/30 09:37:36;;;;;;;65.47;34.20;;;;;;;-2.64;76.48;100678.13;1704466;83;21557;-70
2021/12/30 09:40:04;;;;;;;;;;;;;;;-2.62;76.25;100669.30;1701717;83;22146;-71
2021/12/30 09:42:31;;;;;;;53.33;29.87;;;;;;;-2.58;75.98;100681.22;1707824;83;20104;-69
2021/12/30 09:44:57;;;;;;;56.18;29.32;;;;;;;-2.61;75.85;100672.27;1718491;82;21045;-71
2021/12/30 09:47:23;;;;;;;56.68;30.62;;;;;;;-2.62;75.38;100677.13;1702435;83;21692;-73
2021/12/30 09:49:53;;;;;;;60.75;31.55;;;;;;;-2.62;75.42;100672.35;1692207;83;21551;-71
2021/12/30 09:52:17;;;;;;;59.20;33.00;;;;;;;-2.61;75.41;100667.05;1694267;83;21031;-72
2021/12/30 09:54:45;;;;;;;46.13;27.77;;;;;;;-2.64;75.43;100659.87;1703275;83;21067;-71
2021/12/30 09:57:11;;;;;;;48.85;28.15;;;;;;;-2.66;75.41;100656.04;1699816;83;21059;-69
2021/12/30 09:59:37;;;;;;;40.98;24.07;;;;;;;-2.69;75.12;100658.86;1701695;83;21006;-72
2021/12/30 10:02:04;;;;;;;;;;;;;;;-2.72;75.05;100658.21;1704240;83;21108;-71
2021/12/30 10:04:34;;;;;;;54.23;29.83;;;;;;;-2.74;75.13;100657.83;1701101;83;20161;-70
2021/12/30 10:07:02;;;;;;;52.63;30.20;;;;;;;-2.75;75.22;100661.83;1702746;83;21036;-69
2021/12/30 10:09:52;;;;;;;49.77;28.57;;;;;;;-2.78;75.15;100657.65;1699062;83;20986;-67
2021/12/30 10:12:08;;;;;;;48.80;29.47;;;;;;;-2.75;75.40;100661.83;1709377;83;20990;-70
2021/12/30 10:14:37;;;;;;;42.55;25.23;;;;;;;-2.71;75.48;100662.48;1701471;83;21149;-68
2021/12/30 10:17:19;;;;;;;37.43;21.63;;;;;;;-2.64;74.88;100657.26;1705838;83;20992;-69
2021/12/30 10:19:47;;;;;;;38.50;23.43;;;;;;;-2.62;74.51;100648.86;1707808;83;21003;-78
2021/12/30 10:22:20;;;;;;;36.20;22.90;;;;;;;-3.01;74.47;100586.03;1699768;83;21087;-70
2021/12/30 10:24:48;;;;;;;47.77;28.27;;;;;;;-2.63;74.52;100641.52;1695092;83;21085;-69
2021/12/30 10:27:28;;;;;;;46.50;22.80;;;;;;;-2.64;74.43;100644.20;1696562;83;21048;-69
2021/12/30 10:29:56;;;;;;;41.93;25.63;;;;;;;-2.69;74.25;100639.29;1688726;83;21109;-69
2021/12/30 10:32:27;;;;;;;42.70;25.83;;;;;;;-2.68;74.63;100644.03;1704950;83;21018;-71
2021/12/30 10:35:14;;;;;;;37.03;23.27;;;;;;;-2.69;74.78;100637.98;1712231;82;21124;-69
2021/12/30 10:37:46;;;;;;;32.47;21.60;;;;;;;-2.66;74.44;100634.34;1711658;83;21009;-70
2021/12/30 10:40:29;;;;;;;37.73;23.03;;;;;;;-2.59;74.16;100629.11;1706990;83;21037;-70
2021/12/30 10:43:27;;;;;;;31.10;19.37;;;;;;;-2.62;74.00;100626.23;1698418;83;21025;-70
2021/12/30 10:46:15;;;;;;;28.75;17.85;;;;;;;-2.67;73.85;100625.68;1708396;82;22191;-71
2021/12/30 10:49:00;;;;;;;35.23;19.77;;;;;;;-2.71;74.06;100623.34;1702565;82;21106;-68
2021/12/30 10:51:34;;;;;;;34.43;20.23;;;;;;;-2.68;74.22;100623.16;1712576;82;21042;-70
2021/12/30 10:54:31;;;;;;;32.47;19.93;;;;;;;-2.64;74.06;100618.11;1716821;82;21130;-68
2021/12/30 10:57:06;;;;;;;33.17;20.17;;;;;;;-2.59;74.19;100623.41;1725541;81;21494;-71
2021/12/30 10:59:40;;;;;;;29.90;18.90;;;;;;;-2.69;74.03;100614.50;1729984;81;21009;-70
2021/12/30 11:02:17;;;;;;;32.53;19.10;;;;;;;-2.74;74.15;100616.55;1745926;81;20974;-69
2021/12/30 11:04:56;;;;;;;26.27;16.70;;;;;;;-2.72;74.35;100613.37;1724849;81;21096;-69
2021/12/30 11:07:30;;;;;;;28.40;17.80;;;;;;;-2.69;74.10;100606.67;1738979;81;20987;-69
2021/12/30 11:09:58;;;;;;;28.53;15.53;;;;;;;-2.64;74.02;100596.76;1711597;82;21471;-69
2021/12/30 11:12:31;;;;;;;24.97;16.47;;;;;;;-2.68;73.79;100584.02;1717561;81;21226;-68
2021/12/30 11:15:04;;;;;;;24.60;15.27;;;;;;;-2.59;73.74;100577.73;1728824;83;21017;-68
2021/12/30 11:17:35;;;;;;;30.47;16.03;;;;;;;-2.51;73.80;100592.91;1699402;83;21065;-69